Hauptseite
METAR-TAF:

METAR-TAF

Flughäfen :

Flughafen Weeze

Weeze, Deutschland

Breite: 51-36-09N, Länge: 006-08-32E, Höhe: 32 m

Beobachtung

Neuester Wetterbericht von vor 11 Minuten, um 13:20 UTC
Wind 8 kt aus Südwest, variierte zwischen Süd und West/Südwest
Temperatur 25°C
Luftfeuchtigkeit 41%
Luftdruck 1012 hPa
Sichtweite 10 km oder mehr
keine Wolken unter 1500 m und keine Kumulonimbus oder Gewitterwolken

METAR: EDLV 151320Z 23008KT 190V250 CAVOK 25/11 Q1012

Zeit: 15:31 (13:31 UTC)

Prognose

Neuester Wetterbericht von vor 2 Stunden und 31 Minuten, um 11:00 UTC
Gültige Prognose vom 15 um 12 UTC bis 16 um 12 UTC
Wind 6 kt aus Süd
Sichtweite 10 km oder mehr
keine Wolken unter 1500 m und keine Kumulonimbus oder Gewitterwolken
Übergehend zu
vom 15 um 16 UTC bis 15 um 18 UTC
Wind 3 kt aus Südost

TAF: EDLV 151100Z 1512/1612 19006KT CAVOK BECMG 1516/1518 13003KT

Wetterbeobachtungen und Prognosen von mehr als 4000 Flughäfen (METAR und TAF Bericht).

Die verfügbaren Stationen werden durch gelbe und rote Markierungen auf der Karte dargestellt.

Führen Sie die Maus auf sie, um den Namen der Station zu sehen.

Darauf klicken, um die Beobachtung von Wetterbeobachtungen und Prognosen zu sehen.

Um die Karte zu ändern : klicken Sie auf den grünen Tasten mit einem schwarzen Kreuz Zum Vergrößern, auf den grünen Button mit einem Gedankenstrich zu verkleinern, oder auf die grünen Pfeile für benachbarte Karten.


METAR-TAF: